Time;durP1;ratioP1;P1;durP2;ratioP2;P2;SDS_P1;SDS_P2;PMS_P1;PMS_P2;Temp;Humidity;BMP_temperature;BMP_pressure;BME280_temperature;BME280_humidity;BME280_pressure;Samples;Min_cycle;Max_cycle;Signal;HPM_P1;HPM_P2
2022/12/29 00:01:33;;;;;;;7.82;7.10;;;9.90;99.90;;;;;;5035820;28;20557;-28
2022/12/29 00:03:59;;;;;;;11.30;8.02;;;9.80;99.90;;;;;;5035860;28;20049;-29
2022/12/29 00:06:25;;;;;;;10.35;8.32;;;9.90;99.90;;;;;;5018003;28;20415;-27
2022/12/29 00:08:51;;;;;;;8.90;6.72;;;9.80;99.90;;;;;;5035686;28;20142;-28
2022/12/29 00:11:22;;;;;;;8.90;6.97;;;9.90;99.90;;;;;;5035572;28;20049;-28
2022/12/29 00:16:34;;;;;;;6.50;5.90;;;9.90;99.90;;;;;;5018120;28;20056;-28
2022/12/29 00:19:00;;;;;;;7.18;6.43;;;9.90;99.90;;;;;;5018017;28;20057;-28
2022/12/29 00:35:31;;;;;;;6.60;4.10;;;10.20;99.90;;;;;;5035830;28;20049;-29
2022/12/29 00:46:14;;;;;;;5.00;4.50;;;10.30;99.90;;;;;;5019542;28;20080;-30
2022/12/29 00:51:24;;;;;;;5.45;4.18;;;10.30;99.90;;;;;;5017278;28;20042;-30
2022/12/29 00:53:49;;;;;;;5.82;4.60;;;10.40;99.90;;;;;;5034861;28;20057;-30
2022/12/29 00:56:15;;;;;;;7.55;4.38;;;10.40;99.90;;;;;;5034795;28;20046;-32
2022/12/29 00:58:41;;;;;;;7.75;4.97;;;10.40;99.90;;;;;;5017076;28;20050;-30
2022/12/29 01:01:08;;;;;;;5.47;4.65;;;10.40;99.90;;;;;;5014175;28;20519;-30
2022/12/29 01:03:35;;;;;;;5.55;4.93;;;10.40;99.90;;;;;;5034714;28;20049;-30
2022/12/29 01:06:07;;;;;;;5.85;4.63;;;10.40;99.90;;;;;;5034653;28;20054;-31
2022/12/29 01:08:33;;;;;;;5.32;4.20;;;10.40;99.90;;;;;;5034348;28;20128;-30
2022/12/29 01:11:15;;;;;;;5.10;4.07;;;10.40;99.90;;;;;;5033316;28;20041;-30
2022/12/29 01:13:44;;;;;;;4.05;3.35;;;10.40;99.90;;;;;;5034499;28;20052;-30
2022/12/29 01:16:09;;;;;;;3.42;2.90;;;10.40;99.90;;;;;;5034425;28;20041;-30
2022/12/29 01:18:35;;;;;;;4.47;3.50;;;10.40;99.90;;;;;;5034657;28;20472;-30
2022/12/29 01:21:03;;;;;;;5.07;3.50;;;10.40;99.90;;;;;;5034638;28;20122;-30
2022/12/29 01:23:30;;;;;;;5.13;3.50;;;10.40;99.90;;;;;;5034315;28;20511;-30
2022/12/29 01:25:57;;;;;;;5.07;4.13;;;10.40;99.90;;;;;;5034359;28;20518;-30
2022/12/29 01:28:26;;;;;;;4.93;3.83;;;10.30;99.90;;;;;;5034280;28;20091;-30
2022/12/29 01:30:52;;;;;;;8.77;4.85;;;10.30;99.90;;;;;;5034101;28;20041;-30
2022/12/29 01:33:17;;;;;;;6.63;5.20;;;10.30;99.90;;;;;;5032925;28;20057;-30
2022/12/29 01:35:43;;;;;;;7.68;4.38;;;10.30;99.90;;;;;;5032972;28;20081;-30
2022/12/29 01:38:09;;;;;;;7.03;5.13;;;10.20;99.90;;;;;;5033490;28;20050;-30
2022/12/29 01:40:43;;;;;;;6.55;4.60;;;10.20;99.90;;;;;;5032924;28;20150;-29
2022/12/29 01:43:12;;;;;;;5.10;3.97;;;10.20;99.90;;;;;;5034623;28;20103;-30
2022/12/29 01:45:37;;;;;;;5.03;4.53;;;10.20;99.90;;;;;;5033967;28;20099;-30
2022/12/29 01:48:08;;;;;;;6.32;5.07;;;10.20;99.90;;;;;;5032723;28;20037;-29
2022/12/29 01:50:42;;;;;;;5.50;5.00;;;10.10;99.90;;;;;;5033962;28;20152;-30
2022/12/29 01:53:25;;;;;;;6.07;5.47;;;10.10;99.90;;;;;;5033922;28;20056;-29
2022/12/29 01:55:59;;;;;;;6.00;5.30;;;10.10;99.90;;;;;;5034492;28;20049;-30
2022/12/29 01:58:32;;;;;;;7.75;6.80;;;10.10;99.90;;;;;;5033620;28;20517;-30
2022/12/29 02:00:59;;;;;;;9.63;6.53;;;10.00;99.90;;;;;;5033382;28;20061;-29
2022/12/29 02:03:27;;;;;;;7.93;6.75;;;10.00;99.90;;;;;;5016702;28;20411;-29
2022/12/29 02:06:18;;;;;;;8.77;7.38;;;10.00;99.90;;;;;;5033719;28;20098;-31
2022/12/29 02:08:47;;;;;;;8.88;8.02;;;10.00;99.90;;;;;;5034281;28;20052;-29
2022/12/29 02:11:13;;;;;;;10.57;9.13;;;10.00;99.90;;;;;;5033568;28;20053;-30
2022/12/29 02:13:39;;;;;;;11.68;8.57;;;9.90;99.90;;;;;;5034160;28;20045;-30
2022/12/29 02:16:42;;;;;;;11.23;8.43;;;9.90;99.90;;;;;;5033557;28;20056;-30
2022/12/29 02:19:10;;;;;;;10.65;9.55;;;9.80;99.90;;;;;;5034145;28;20041;-29
2022/12/29 02:22:15;;;;;;;11.38;9.80;;;9.80;99.90;;;;;;5033549;28;20049;-30
2022/12/29 02:24:50;;;;;;;9.57;8.68;;;9.80;99.90;;;;;;4983133;28;20111;-27
2022/12/29 02:27:33;;;;;;;10.27;8.07;;;9.80;99.90;;;;;;5034080;28;20129;-31
2022/12/29 02:29:58;;;;;;;11.27;8.23;;;9.80;99.90;;;;;;5033808;28;20055;-30
2022/12/29 02:32:55;;;;;;;9.60;8.27;;;9.80;99.90;;;;;;5033375;28;20054;-30
2022/12/29 02:35:47;;;;;;;11.15;9.05;;;9.80;99.90;;;;;;5034251;28;20054;-31
2022/12/29 02:38:41;;;;;;;13.85;9.23;;;9.70;99.90;;;;;;5033978;28;20064;-31
2022/12/29 02:41:38;;;;;;;17.27;10.52;;;9.70;99.90;;;;;;5033915;28;20048;-32
2022/12/29 02:44:16;;;;;;;10.35;8.43;;;9.70;99.90;;;;;;5033642;28;20077;-31
2022/12/29 02:46:51;;;;;;;8.95;7.40;;;9.70;99.90;;;;;;5016252;28;20107;-30
2022/12/29 02:49:35;;;;;;;8.68;7.38;;;9.70;99.90;;;;;;5033559;28;20504;-31
2022/12/29 02:52:06;;;;;;;;;;;9.70;99.90;;;;;;5034217;28;20056;-31
2022/12/29 02:54:41;;;;;;;8.20;5.45;;;9.70;99.90;;;;;;5033272;28;19999;-30
2022/12/29 02:57:28;;;;;;;9.13;4.93;;;9.70;99.90;;;;;;5033677;28;20057;-31
2022/12/29 03:00:02;;;;;;;5.35;4.85;;;9.80;99.90;;;;;;5032626;28;20057;-32
2022/12/29 03:02:39;;;;;;;3.83;3.38;;;9.80;99.90;;;;;;5034026;28;20045;-31
2022/12/29 03:05:30;;;;;;;2.70;2.10;;;9.90;99.90;;;;;;5015817;28;20050;-31
2022/12/29 03:08:13;;;;;;;3.10;2.13;;;9.90;99.90;;;;;;5033874;28;20111;-30
2022/12/29 03:10:51;;;;;;;3.35;2.00;;;11.10;99.90;;;;;;5019390;28;20042;-29
2022/12/29 03:16:20;;;;;;;4.35;2.50;;;10.00;99.90;;;;;;5036701;28;20168;-27
2022/12/29 03:18:49;;;;;;;3.22;2.30;;;9.90;99.90;;;;;;5036635;28;20049;-28
2022/12/29 03:22:26;;;;;;;2.80;2.40;;;9.90;99.90;;;;;;5036617;28;20042;-28
2022/12/29 03:24:13;;;;;;;4.22;1.90;;;9.90;99.90;;;;;;5036459;28;20057;-29
2022/12/29 03:26:42;;;;;;;3.38;1.27;;;9.90;99.90;;;;;;5036812;28;20052;-30
2022/12/29 03:29:09;;;;;;;6.40;1.65;;;9.90;99.90;;;;;;5036469;28;20051;-29
2022/12/29 03:31:37;;;;;;;3.63;0.73;;;9.90;99.90;;;;;;5036370;28;20038;-30
2022/12/29 03:34:05;;;;;;;4.88;1.13;;;9.90;99.90;;;;;;5018704;28;20049;-30
2022/12/29 03:36:42;;;;;;;3.35;0.90;;;9.80;99.90;;;;;;5018737;28;20115;-30
2022/12/29 03:39:13;;;;;;;5.10;1.30;;;9.80;99.90;;;;;;5036332;28;20491;-30
2022/12/29 03:41:42;;;;;;;3.85;1.25;;;9.80;99.90;;;;;;5003263;28;20427;-31
2022/12/29 03:44:08;;;;;;;5.32;1.15;;;9.80;99.90;;;;;;5036716;28;20045;-30
2022/12/29 03:46:34;;;;;;;5.10;1.50;;;9.70;99.90;;;;;;5036710;28;20053;-30
2022/12/29 03:49:00;;;;;;;5.07;1.42;;;9.60;99.90;;;;;;5036123;28;20045;-31
2022/12/29 03:51:26;;;;;;;4.03;1.10;;;9.70;99.90;;;;;;5035943;28;20391;-31
2022/12/29 03:53:51;;;;;;;4.00;0.85;;;9.60;99.90;;;;;;5002202;28;20081;-31
2022/12/29 03:56:17;;;;;;;6.57;1.60;;;9.60;99.90;;;;;;5035963;28;20057;-31
2022/12/29 03:58:43;;;;;;;3.50;0.95;;;9.30;99.90;;;;;;5035838;28;20052;-30
2022/12/29 04:01:08;;;;;;;5.45;0.82;;;9.60;99.90;;;;;;5036305;28;20559;-30
2022/12/29 04:03:34;;;;;;;7.93;2.03;;;9.50;99.90;;;;;;5035838;28;20085;-31
2022/12/29 04:06:00;;;;;;;3.72;0.82;;;9.50;99.90;;;;;;5018835;28;20471;-31
2022/12/29 04:08:26;;;;;;;3.08;1.23;;;9.50;99.90;;;;;;5018117;28;20053;-31
2022/12/29 04:10:51;;;;;;;6.75;1.50;;;9.60;99.90;;;;;;5035605;28;20052;-31
2022/12/29 04:13:17;;;;;;;2.53;1.00;;;9.60;99.90;;;;;;5035920;28;20052;-31
2022/12/29 04:15:45;;;;;;;5.15;1.08;;;9.60;99.90;;;;;;5035651;28;20045;-31
2022/12/29 04:18:11;;;;;;;10.80;2.00;;;9.70;99.90;;;;;;5035602;28;20057;-32
2022/12/29 04:23:22;;;;;;;4.95;0.93;;;9.70;99.90;;;;;;5035478;28;20054;-31
2022/12/29 04:25:48;;;;;;;7.75;1.38;;;9.80;99.90;;;;;;5035419;28;20053;-31
2022/12/29 04:28:15;;;;;;;4.32;1.15;;;9.80;99.90;;;;;;5035695;28;20128;-31
2022/12/29 04:30:42;;;;;;;5.45;1.02;;;9.70;99.90;;;;;;5035256;28;20044;-31
2022/12/29 04:33:08;;;;;;;4.15;0.85;;;9.90;99.90;;;;;;5034976;28;20553;-31
2022/12/29 04:35:34;;;;;;;9.05;1.40;;;9.90;99.90;;;;;;5035426;28;20049;-31
2022/12/29 04:38:00;;;;;;;6.47;1.17;;;9.90;99.90;;;;;;5035171;28;20045;-32
2022/12/29 04:40:25;;;;;;;5.55;0.93;;;9.80;99.90;;;;;;5017668;28;20041;-31
2022/12/29 04:42:51;;;;;;;9.63;1.65;;;9.80;99.90;;;;;;5035137;28;20377;-31
2022/12/29 04:45:17;;;;;;;6.88;1.30;;;9.80;99.90;;;;;;5035009;28;20080;-31
2022/12/29 04:47:43;;;;;;;7.35;1.70;;;9.70;99.90;;;;;;5017792;28;20107;-31
2022/12/29 04:50:09;;;;;;;7.53;1.80;;;9.70;99.90;;;;;;5034936;28;20045;-31
2022/12/29 04:52:35;;;;;;;8.88;1.98;;;9.70;99.90;;;;;;5034903;28;20103;-31
2022/12/29 04:55:00;;;;;;;10.23;1.38;;;9.70;99.90;;;;;;5034820;28;20108;-31
2022/12/29 04:57:26;;;;;;;10.20;1.20;;;9.60;99.90;;;;;;5035525;28;20045;-31
2022/12/29 04:59:52;;;;;;;5.20;0.98;;;9.50;99.90;;;;;;5034574;28;20546;-31
2022/12/29 05:02:18;;;;;;;7.20;1.30;;;9.40;99.90;;;;;;5034759;28;20091;-31
2022/12/29 05:04:44;;;;;;;10.07;2.13;;;9.40;99.90;;;;;;5034686;28;20045;-31
2022/12/29 05:07:10;;;;;;;8.27;1.20;;;9.30;99.90;;;;;;5034603;28;20090;-31
2022/12/29 05:09:36;;;;;;;8.75;1.85;;;9.30;99.90;;;;;;5035441;28;20456;-31
2022/12/29 05:12:01;;;;;;;13.27;2.38;;;9.30;99.90;;;;;;5016821;28;20042;-31
2022/12/29 05:14:27;;;;;;;10.63;1.65;;;9.40;99.90;;;;;;5034496;28;20057;-30
2022/12/29 05:16:53;;;;;;;7.88;1.55;;;9.40;99.90;;;;;;5016716;28;20111;-31
2022/12/29 05:19:18;;;;;;;7.97;1.15;;;9.30;99.90;;;;;;5035196;28;20102;-31
2022/12/29 05:21:44;;;;;;;10.93;2.38;;;9.20;99.90;;;;;;5016430;28;20046;-31
2022/12/29 05:24:10;;;;;;;10.68;2.47;;;9.20;99.90;;;;;;5034322;28;20055;-31
2022/12/29 05:26:36;;;;;;;13.50;1.70;;;9.20;99.90;;;;;;5034333;28;20084;-31
2022/12/29 05:29:02;;;;;;;11.25;1.73;;;9.20;99.90;;;;;;5034806;28;20059;-31
2022/12/29 05:31:28;;;;;;;13.93;2.53;;;9.10;99.90;;;;;;5034563;28;20133;-31
2022/12/29 05:33:54;;;;;;;11.43;2.10;;;9.10;99.90;;;;;;5034423;28;20460;-31
2022/12/29 05:36:20;;;;;;;12.98;2.00;;;9.10;99.90;;;;;;5034119;28;20053;-31
2022/12/29 05:38:45;;;;;;;14.02;2.38;;;9.10;99.90;;;;;;5034063;28;20483;-31
2022/12/29 05:41:11;;;;;;;12.32;1.48;;;9.10;99.90;;;;;;5034107;28;20041;-30
2022/12/29 05:43:37;;;;;;;11.10;2.60;;;9.10;99.90;;;;;;5033965;28;20049;-31
2022/12/29 05:46:03;;;;;;;10.23;1.92;;;9.10;99.90;;;;;;5034484;28;20091;-31
2022/12/29 05:48:29;;;;;;;14.30;2.83;;;9.00;99.90;;;;;;5017202;28;20110;-31
2022/12/29 05:50:55;;;;;;;11.25;2.42;;;9.10;99.90;;;;;;5016398;28;20487;-31
2022/12/29 05:53:21;;;;;;;11.45;2.17;;;9.20;99.90;;;;;;5034458;28;20082;-30
2022/12/29 05:55:48;;;;;;;13.60;2.33;;;9.30;99.90;;;;;;5034063;28;20053;-31
2022/12/29 05:58:15;;;;;;;16.63;3.20;;;9.40;99.90;;;;;;5033688;28;20060;-31
2022/12/29 06:00:41;;;;;;;10.82;2.25;;;9.40;99.90;;;;;;5033414;28;20053;-31
2022/12/29 06:03:06;;;;;;;18.80;2.17;;;9.40;99.90;;;;;;5000397;28;20053;-30
2022/12/29 06:05:32;;;;;;;9.25;2.28;;;9.40;99.90;;;;;;5033707;28;20049;-31
2022/12/29 06:07:58;;;;;;;14.65;2.67;;;9.40;99.90;;;;;;5033684;28;20421;-30
2022/12/29 06:10:24;;;;;;;9.30;1.83;;;9.40;99.90;;;;;;5034102;28;20049;-31
2022/12/29 06:12:49;;;;;;;12.70;2.70;;;9.40;99.90;;;;;;5033650;28;20045;-30
2022/12/29 06:15:15;;;;;;;13.00;2.33;;;9.40;99.90;;;;;;5033662;28;20099;-31
2022/12/29 06:17:41;;;;;;;12.13;2.45;;;9.40;99.90;;;;;;5033568;28;20107;-30
2022/12/29 06:20:07;;;;;;;13.77;2.38;;;9.30;99.90;;;;;;4999790;28;20091;-30
2022/12/29 06:22:33;;;;;;;15.57;2.45;;;9.40;99.90;;;;;;5034063;28;20046;-30
2022/12/29 06:24:59;;;;;;;16.65;2.40;;;9.30;99.90;;;;;;5033504;28;20049;-30
2022/12/29 06:27:25;;;;;;;18.45;2.97;;;9.30;99.90;;;;;;5033486;28;20137;-30
2022/12/29 06:29:51;;;;;;;14.98;3.00;;;9.20;99.90;;;;;;5016068;28;20381;-30
2022/12/29 06:32:17;;;;;;;17.33;3.78;;;9.20;99.90;;;;;;5033341;28;20048;-30
2022/12/29 06:34:44;;;;;;;11.70;2.50;;;9.20;99.90;;;;;;5033754;28;20435;-30
2022/12/29 06:37:10;;;;;;;13.02;2.40;;;9.10;99.90;;;;;;5033432;28;20412;-30
2022/12/29 06:39:36;;;;;;;16.95;3.70;;;9.10;99.90;;;;;;5016172;28;20384;-30
2022/12/29 06:42:02;;;;;;;18.83;3.00;;;9.20;99.90;;;;;;5033375;28;20042;-31
2022/12/29 06:44:28;;;;;;;17.77;2.10;;;9.20;99.90;;;;;;5036006;28;20045;-30
2022/12/29 06:46:54;;;;;;;18.02;3.00;;;9.20;99.90;;;;;;5037296;28;20092;-30
2022/12/29 06:49:20;;;;;;;19.63;3.17;;;9.20;99.90;;;;;;5037231;28;20483;-30
2022/12/29 06:51:46;;;;;;;12.57;2.80;;;9.10;99.90;;;;;;5037911;28;20107;-29
2022/12/29 06:54:12;;;;;;;22.38;2.85;;;9.10;99.90;;;;;;5037631;28;20057;-30
2022/12/29 06:56:38;;;;;;;12.75;2.58;;;9.00;99.90;;;;;;5037150;28;20049;-30
2022/12/29 06:59:04;;;;;;;17.98;3.47;;;9.00;99.90;;;;;;5037246;28;20119;-30
2022/12/29 07:01:31;;;;;;;15.82;2.55;;;9.00;99.90;;;;;;5036820;28;20159;-30
2022/12/29 07:03:57;;;;;;;14.70;3.10;;;9.00;99.90;;;;;;5019302;28;20146;-30
2022/12/29 07:06:23;;;;;;;12.02;2.90;;;9.00;99.90;;;;;;5036929;28;20045;-30
2022/12/29 07:08:49;;;;;;;18.75;2.80;;;9.10;99.90;;;;;;5037128;28;20108;-30
2022/12/29 07:11:14;;;;;;;18.77;3.00;;;9.10;99.90;;;;;;5037330;28;20068;-30
2022/12/29 07:13:40;;;;;;;18.13;2.67;;;9.10;99.90;;;;;;5019798;28;20110;-30
2022/12/29 07:16:09;;;;;;;16.65;2.65;;;9.00;99.90;;;;;;5036796;28;20123;-30
2022/12/29 07:18:35;;;;;;;9.65;2.28;;;8.90;99.90;;;;;;5036662;28;20048;-30
2022/12/29 07:21:01;;;;;;;14.82;2.42;;;9.00;99.90;;;;;;5019600;28;20388;-29
2022/12/29 07:23:27;;;;;;;17.00;2.63;;;9.10;99.90;;;;;;5036652;28;20057;-30
2022/12/29 07:26:09;;;;;;;15.80;2.83;;;9.10;99.90;;;;;;5036586;28;20144;-29
2022/12/29 07:28:38;;;;;;;16.73;2.55;;;9.10;99.90;;;;;;5037139;28;20068;-30
2022/12/29 07:31:05;;;;;;;17.92;3.00;;;9.10;99.90;;;;;;5036446;28;20045;-30
2022/12/29 07:33:32;;;;;;;20.15;3.50;;;9.10;99.90;;;;;;5018641;28;20056;-29
2022/12/29 07:35:59;;;;;;;19.38;4.25;;;9.20;99.90;;;;;;5036388;28;20045;-30
2022/12/29 07:38:25;;;;;;;18.88;3.10;;;9.20;99.90;;;;;;5036325;28;20506;-30
2022/12/29 07:40:50;;;;;;;17.33;3.53;;;9.30;99.90;;;;;;5036275;28;20124;-30
2022/12/29 07:43:16;;;;;;;15.35;3.00;;;9.30;99.90;;;;;;5018732;28;20136;-29
2022/12/29 07:45:42;;;;;;;16.83;2.58;;;9.40;99.90;;;;;;5037008;28;20049;-30
2022/12/29 07:48:08;;;;;;;15.82;2.85;;;9.40;99.90;;;;;;5036213;28;20498;-30
2022/12/29 07:50:37;;;;;;;11.43;2.55;;;9.30;99.90;;;;;;5036047;28;20403;-29
2022/12/29 07:53:03;;;;;;;15.40;2.75;;;9.30;99.90;;;;;;5036332;28;20045;-29
2022/12/29 07:55:29;;;;;;;13.05;2.15;;;9.30;99.90;;;;;;5034629;28;20045;-30
2022/12/29 07:57:56;;;;;;;13.00;2.05;;;9.40;99.90;;;;;;5035626;28;20056;-29
2022/12/29 08:00:22;;;;;;;13.82;3.00;;;9.30;99.90;;;;;;5023557;28;20065;-30
2022/12/29 08:02:48;;;;;;;15.55;2.45;;;9.40;99.90;;;;;;5035294;28;20053;-30
2022/12/29 08:05:15;;;;;;;12.48;2.50;;;9.30;99.90;;;;;;5036167;28;20389;-29
2022/12/29 08:07:43;;;;;;;16.67;2.97;;;9.30;99.90;;;;;;5034835;28;20085;-30
2022/12/29 08:10:10;;;;;;;12.30;2.90;;;9.40;99.90;;;;;;5036354;28;20053;-30
2022/12/29 08:12:38;;;;;;;19.23;3.00;;;9.30;99.90;;;;;;5035706;28;20052;-29
2022/12/29 08:15:04;;;;;;;17.95;3.92;;;9.40;99.90;;;;;;5035441;28;20495;-30
2022/12/29 08:17:30;;;;;;;15.75;3.10;;;9.40;99.90;;;;;;5019032;28;20084;-29
2022/12/29 08:19:56;;;;;;;18.35;3.53;;;9.40;99.90;;;;;;5035554;28;20088;-30
2022/12/29 08:22:23;;;;;;;15.93;3.58;;;9.40;99.90;;;;;;5035469;28;20052;-30
2022/12/29 08:24:51;;;;;;;12.18;3.17;;;9.40;99.90;;;;;;5034798;28;20042;-29
2022/12/29 08:27:18;;;;;;;13.50;2.58;;;9.40;99.90;;;;;;5034357;28;20053;-30
2022/12/29 08:29:43;;;;;;;17.95;3.63;;;9.40;99.90;;;;;;5035403;28;20476;-30
2022/12/29 08:32:10;;;;;;;26.80;4.72;;;9.40;99.90;;;;;;5035248;28;20044;-30
2022/12/29 08:34:36;;;;;;;20.23;4.75;;;9.50;99.90;;;;;;5034350;28;20052;-30
2022/12/29 08:37:02;;;;;;;23.20;4.65;;;9.40;99.90;;;;;;5034121;28;20041;-29
2022/12/29 08:39:27;;;;;;;22.05;3.85;;;9.30;99.90;;;;;;5035769;28;20073;-29
2022/12/29 08:41:53;;;;;;;19.52;3.58;;;9.20;99.90;;;;;;5033989;28;20128;-29
2022/12/29 08:44:19;;;;;;;21.42;4.25;;;9.20;99.90;;;;;;5035377;28;20106;-29
2022/12/29 08:46:45;;;;;;;15.73;3.17;;;9.20;99.90;;;;;;5034847;28;20460;-29
2022/12/29 08:49:11;;;;;;;18.40;3.78;;;9.20;99.90;;;;;;5035279;28;20049;-29
2022/12/29 08:51:37;;;;;;;18.70;4.75;;;9.30;99.90;;;;;;5035444;28;20080;-29
2022/12/29 08:54:03;;;;;;;22.05;5.07;;;9.30;99.90;;;;;;5034880;28;20053;-29
2022/12/29 08:56:29;;;;;;;17.48;4.35;;;9.30;99.90;;;;;;5035690;28;20081;-29
2022/12/29 08:58:55;;;;;;;19.05;3.10;;;9.30;99.90;;;;;;5034967;28;20104;-29
2022/12/29 09:01:21;;;;;;;21.33;3.65;;;9.30;99.90;;;;;;5034408;28;20097;-29
2022/12/29 09:03:47;;;;;;;22.77;5.35;;;9.20;99.90;;;;;;5034692;28;20092;-29
2022/12/29 09:06:15;;;;;;;24.45;3.97;;;9.30;99.90;;;;;;5016783;28;20506;-29
2022/12/29 09:08:40;;;;;;;23.05;3.83;;;9.20;99.90;;;;;;5034624;28;20049;-29
2022/12/29 09:11:08;;;;;;;22.77;4.18;;;9.20;99.90;;;;;;5034535;28;20041;-29
2022/12/29 09:13:35;;;;;;;29.92;4.85;;;9.10;99.90;;;;;;5016920;28;20049;-29
2022/12/29 09:16:01;;;;;;;25.40;5.03;;;9.10;99.90;;;;;;5017602;28;20480;-28
2022/12/29 09:18:26;;;;;;;29.75;5.45;;;9.00;99.90;;;;;;5016808;28;20060;-29
2022/12/29 09:21:00;;;;;;;25.95;4.25;;;8.90;99.90;;;;;;5016958;28;20387;-29
2022/12/29 09:23:27;;;;;;;25.65;4.95;;;8.80;99.90;;;;;;5034212;28;20052;-30
2022/12/29 09:25:53;;;;;;;31.75;5.95;;;8.90;99.90;;;;;;5034292;28;20045;-30
2022/12/29 09:28:20;;;;;;;23.02;4.95;;;8.90;99.90;;;;;;5016668;28;20049;-30
2022/12/29 09:30:46;;;;;;;31.60;4.78;;;9.00;99.90;;;;;;5034111;28;20048;-30
2022/12/29 09:33:12;;;;;;;24.67;4.57;;;9.00;99.90;;;;;;5034162;28;20042;-30
2022/12/29 09:35:43;;;;;;;21.13;4.40;;;9.00;99.90;;;;;;5034173;28;20179;-30
2022/12/29 09:38:09;;;;;;;17.75;3.20;;;8.90;99.90;;;;;;5017085;28;20132;-30
2022/12/29 09:40:36;;;;;;;21.60;4.32;;;8.90;99.90;;;;;;5016372;28;20049;-30
2022/12/29 09:43:43;;;;;;;21.40;3.42;;;8.90;99.90;;;;;;5034027;28;20372;-29
2022/12/29 09:46:15;;;;;;;22.25;4.72;;;8.70;99.90;;;;;;5016947;28;20132;-29
2022/12/29 09:48:47;;;;;;;22.88;4.45;;;8.70;99.90;;;;;;5033893;28;20060;-30
2022/12/29 09:51:18;;;;;;;24.35;3.78;;;8.70;99.90;;;;;;5035027;28;20100;-31
2022/12/29 09:53:56;;;;;;;18.35;3.70;;;8.70;99.90;;;;;;5034020;28;20052;-30
2022/12/29 09:56:24;;;;;;;23.13;3.45;;;8.80;99.90;;;;;;5034222;28;20049;-30
2022/12/29 09:59:17;;;;;;;22.40;3.65;;;8.90;99.90;;;;;;5034236;28;20049;-29
2022/12/29 10:02:04;;;;;;;22.33;3.30;;;8.90;99.90;;;;;;5033766;28;20049;-29
2022/12/29 10:04:30;;;;;;;14.73;3.65;;;8.70;99.90;;;;;;5033790;28;20072;-28
2022/12/29 10:07:09;;;;;;;20.85;3.33;;;8.80;99.90;;;;;;4999940;28;20049;-26
2022/12/29 10:09:49;;;;;;;15.38;3.17;;;8.70;99.90;;;;;;5033751;28;20121;-27
2022/12/29 10:12:24;;;;;;;12.98;2.40;;;8.60;99.90;;;;;;5034442;28;20041;-27
2022/12/29 10:15:12;;;;;;;17.60;3.65;;;8.60;99.90;;;;;;5033676;28;20500;-27
2022/12/29 10:17:54;;;;;;;13.18;3.08;;;8.60;99.90;;;;;;5032955;28;20084;-27
2022/12/29 10:20:44;;;;;;;16.30;3.72;;;8.60;99.90;;;;;;5015979;28;20055;-27
2022/12/29 10:23:25;;;;;;;13.52;2.67;;;8.50;99.90;;;;;;5016756;28;20448;-27
2022/12/29 10:25:54;;;;;;;15.75;3.85;;;8.40;99.90;;;;;;5016213;28;20136;-28
2022/12/29 10:28:34;;;;;;;15.88;3.15;;;8.60;99.90;;;;;;5033534;28;20046;-28
2022/12/29 10:31:03;;;;;;;15.98;3.22;;;8.70;99.90;;;;;;5016132;28;20442;-28
2022/12/29 10:33:47;;;;;;;14.93;2.72;;;8.60;99.90;;;;;;5033438;28;20041;-29
2022/12/29 10:36:39;;;;;;;21.73;3.22;;;8.60;99.90;;;;;;5000662;28;20146;-28
2022/12/29 10:39:36;;;;;;;17.15;3.00;;;8.60;99.90;;;;;;5015880;28;20092;-28
2022/12/29 10:42:10;;;;;;;19.42;3.35;;;8.60;99.90;;;;;;5033122;28;20446;-29
2022/12/29 10:44:37;;;;;;;16.60;4.20;;;8.60;99.90;;;;;;5033984;28;20050;-30
2022/12/29 10:47:07;;;;;;;16.67;3.97;;;8.60;99.90;;;;;;5033281;28;20049;-29
2022/12/29 10:49:39;;;;;;;21.50;3.25;;;8.70;99.90;;;;;;5033402;28;20120;-30
2022/12/29 10:52:06;;;;;;;26.58;4.63;;;8.80;99.90;;;;;;5033229;28;20050;-30
2022/12/29 10:54:56;;;;;;;27.17;4.93;;;8.80;99.90;;;;;;5033517;28;20084;-30
2022/12/29 10:57:21;;;;;;;24.63;3.85;;;8.80;99.90;;;;;;5015848;28;20057;-30
2022/12/29 10:59:47;;;;;;;26.80;4.07;;;8.90;99.90;;;;;;4999770;28;20050;-31
2022/12/29 11:02:37;;;;;;;26.67;4.07;;;8.90;99.90;;;;;;5033180;28;20048;-31
2022/12/29 11:05:27;;;;;;;25.23;4.22;;;8.90;99.90;;;;;;5033206;28;20135;-30
2022/12/29 11:07:58;;;;;;;32.22;5.80;;;8.90;99.90;;;;;;5033116;28;20140;-30
2022/12/29 11:10:35;;;;;;;26.05;5.68;;;9.00;99.90;;;;;;5015650;28;20053;-31
2022/12/29 11:13:13;;;;;;;23.88;4.55;;;8.90;99.90;;;;;;5033893;28;20136;-31
2022/12/29 11:15:44;;;;;;;31.35;5.05;;;9.00;99.90;;;;;;5016004;28;20098;-30
2022/12/29 11:18:23;;;;;;;24.67;4.93;;;9.00;99.90;;;;;;5015620;28;20048;-30
2022/12/29 11:21:00;;;;;;;19.30;4.18;;;9.00;99.90;;;;;;5033292;28;20373;-30
2022/12/29 11:23:28;;;;;;;26.73;5.75;;;9.00;99.90;;;;;;5033623;28;20081;-30
2022/12/29 11:26:19;;;;;;;26.38;4.45;;;9.00;99.90;;;;;;4998977;28;20091;-30
2022/12/29 11:29:03;;;;;;;29.65;5.15;;;9.10;99.90;;;;;;5032954;28;20041;-30
2022/12/29 11:31:28;;;;;;;25.88;5.25;;;9.10;99.90;;;;;;5019278;28;20049;-30
2022/12/29 11:33:54;;;;;;;24.55;4.35;;;9.10;99.90;;;;;;5036437;28;20049;-30
2022/12/29 11:36:22;;;;;;;27.08;4.65;;;9.10;99.90;;;;;;5018960;28;20127;-30
2022/12/29 11:38:54;;;;;;;24.52;6.05;;;9.10;99.90;;;;;;5019480;28;20382;-29
2022/12/29 11:41:31;;;;;;;28.50;5.05;;;9.10;99.90;;;;;;5036961;28;20045;-30
2022/12/29 11:44:04;;;;;;;29.10;5.43;;;9.10;99.90;;;;;;5036303;28;20053;-30
2022/12/29 11:46:37;;;;;;;27.20;5.32;;;9.10;99.90;;;;;;5037094;28;20050;-30
2022/12/29 11:49:04;;;;;;;25.83;4.32;;;9.10;99.90;;;;;;5018802;28;20503;-30
2022/12/29 11:51:43;;;;;;;23.98;4.45;;;9.10;99.90;;;;;;5036834;28;20363;-30
2022/12/29 11:54:31;;;;;;;22.30;5.03;;;9.10;99.90;;;;;;5036644;28;20053;-30
2022/12/29 11:56:58;;;;;;;33.10;6.03;;;9.10;99.90;;;;;;5018457;28;20379;-29
2022/12/29 11:59:37;;;;;;;24.23;4.07;;;9.00;99.90;;;;;;5036707;28;20046;-30
2022/12/29 12:02:33;;;;;;;23.70;4.13;;;8.90;99.90;;;;;;5033022;28;20124;-30
2022/12/29 12:05:30;;;;;;;20.63;4.43;;;8.90;99.90;;;;;;5035882;28;20488;-29
2022/12/29 12:08:17;;;;;;;22.63;5.07;;;8.90;99.90;;;;;;5036742;28;20128;-29
2022/12/29 12:11:09;;;;;;;28.40;5.40;;;8.90;99.90;;;;;;5035696;28;20450;-30
2022/12/29 12:13:56;;;;;;;24.38;3.85;;;9.00;99.90;;;;;;5036570;28;20049;-30
2022/12/29 12:16:30;;;;;;;20.98;4.50;;;9.10;99.90;;;;;;5034380;28;20050;-30
2022/12/29 12:19:13;;;;;;;21.55;3.47;;;9.20;99.90;;;;;;5035723;28;20049;-30
2022/12/29 12:21:41;;;;;;;16.13;2.33;;;9.30;99.90;;;;;;5035627;28;20049;-30
2022/12/29 12:24:30;;;;;;;15.43;3.70;;;9.40;99.90;;;;;;5034446;28;20128;-29
2022/12/29 12:27:24;;;;;;;13.48;2.95;;;9.50;99.90;;;;;;5018124;28;20057;-30
2022/12/29 12:30:08;;;;;;;11.13;2.10;;;9.60;99.90;;;;;;5036012;28;20060;-29
2022/12/29 12:33:00;;;;;;;15.07;3.03;;;9.70;99.90;;;;;;5035963;28;20085;-29
2022/12/29 12:36:08;;;;;;;10.63;2.60;;;9.50;99.90;;;;;;5035371;28;20053;-30
2022/12/29 12:39:05;;;;;;;14.52;2.70;;;9.30;99.90;;;;;;5035607;28;20115;-29
2022/12/29 12:41:43;;;;;;;15.32;3.17;;;9.20;99.90;;;;;;5034657;28;20110;-29
2022/12/29 12:44:24;;;;;;;11.05;2.35;;;9.20;99.90;;;;;;5035182;28;20060;-30
2022/12/29 12:47:46;;;;;;;17.63;2.15;;;9.30;99.90;;;;;;5035135;28;20057;-29
2022/12/29 12:50:27;;;;;;;11.85;1.92;;;9.20;99.90;;;;;;4970562;28;20126;-30
2022/12/29 12:53:15;;;;;;;15.20;2.65;;;9.10;99.90;;;;;;5034932;28;20046;-30
2022/12/29 12:56:14;;;;;;;12.57;2.65;;;9.20;99.90;;;;;;5033968;28;20037;-30
2022/12/29 12:58:42;;;;;;;13.98;2.00;;;9.30;99.90;;;;;;5035101;28;20049;-30
2022/12/29 13:01:41;;;;;;;10.52;2.22;;;9.40;99.90;;;;;;5033275;28;20527;-30
2022/12/29 13:04:15;;;;;;;14.50;2.15;;;9.40;99.90;;;;;;5035646;28;20061;-30
2022/12/29 13:07:07;;;;;;;13.05;2.38;;;9.30;99.90;;;;;;5017027;28;20060;-30
2022/12/29 13:09:55;;;;;;;11.77;2.13;;;9.30;99.90;;;;;;5000679;28;20045;-29
2022/12/29 13:12:30;;;;;;;17.15;2.15;;;9.40;99.90;;;;;;5017439;28;20045;-30
2022/12/29 13:15:12;;;;;;;9.77;2.20;;;9.40;99.90;;;;;;5017883;28;20052;-30
2022/12/29 13:18:32;;;;;;;9.60;1.83;;;9.40;99.90;;;;;;5034546;28;20053;-30
2022/12/29 13:21:15;;;;;;;10.93;1.75;;;9.40;99.90;;;;;;5016806;28;20128;-30
2022/12/29 13:23:47;;;;;;;10.60;2.20;;;9.30;99.90;;;;;;5034394;28;20495;-30
2022/12/29 13:26:37;;;;;;;9.80;1.80;;;9.30;99.90;;;;;;5016730;28;20575;-30
2022/12/29 13:29:32;;;;;;;9.55;2.42;;;9.40;99.90;;;;;;5016903;28;20053;-30
2022/12/29 13:32:29;;;;;;;13.23;2.17;;;9.40;99.90;;;;;;5034811;28;20079;-30
2022/12/29 13:35:15;;;;;;;11.32;1.70;;;9.30;99.90;;;;;;5034241;28;20547;-30
2022/12/29 13:37:59;;;;;;;12.10;2.03;;;9.10;99.90;;;;;;5016528;28;20557;-29
2022/12/29 13:40:28;;;;;;;12.95;1.95;;;9.00;99.90;;;;;;5034795;28;20540;-29
2022/12/29 13:42:56;;;;;;;12.60;2.72;;;8.90;99.90;;;;;;5016428;28;20490;-30
2022/12/29 13:45:33;;;;;;;9.73;2.10;;;8.80;99.90;;;;;;5034816;28;20123;-29
2022/12/29 13:48:11;;;;;;;11.45;2.22;;;8.90;99.90;;;;;;5034306;28;20114;-29